CheckWX is a tool to help pilots better visualize weather data.  It is not intended as a substitute for an official pre-flight weather briefing.

15:14:47 UTC

KMTV METAR
Blue Ridge Airport
Martinsville, Virginia, USA
Current

24 mins ago

KMTV 261451Z AUTO 10SM CLR 29/20 A3015 RMK AO2
Observed
May-26 @ 14:51 UTC
Visibility
10 SM
Flight Rules
VFR
Cloud Levels
  • Clear skies
Temperature
29°C / 84°F
Dewpoint
20°C / 68°F
Heat Index
31°C / 87°F
Humidity
58%
Altimeter
30.15" Hg
Pressure
1021.02 hPa
Previous

43 mins ago

KMTV 261432Z AUTO 00000KT 10SM CLR 29/19 A3015 RMK AO2
Observed
May-26 @ 14:32 UTC
Visibility
10 SM
Flight Rules
VFR
Cloud Levels
  • Clear skies
Temperature
29°C / 84°F
Dewpoint
19°C / 66°F
Heat Index
30°C / 86°F
Humidity
55%
Altimeter
30.15" Hg
Pressure
1021.02 hPa
Previous

1 hour ago

KMTV 261352Z AUTO 00000KT 10SM CLR 28/19 A3016 RMK AO2
Observed
May-26 @ 13:52 UTC
Visibility
10 SM
Flight Rules
VFR
Cloud Levels
  • Clear skies
Temperature
28°C / 82°F
Dewpoint
19°C / 66°F
Heat Index
29°C / 84°F
Humidity
58%
Altimeter
30.16" Hg
Pressure
1021.32 hPa